Maplewood, Maine
Current Conditions -  °F | °C
As of 9:54 PM on Saturday 22 Nov 2014 (Local Time) from KIZG Reporting Station
Clear Clear  
Wind Chill: 32°   Ceiling: Unl
Heat Index: 38°   Visibility: 10mi
Dew Point: 21°   Wind: 8mph
Humidity: 51%   Direction: 220°SW
Pressure: 29.92"   Gusts: NA
Location:  43.7658°N, 70.9172°W
Report Text: KIZG 230254Z AUTO 22007KT 10SM CLR 03/M06 A2992 RMK AO2 SLP138 T00331061 56012
Loading
Personal Weather Stations






























Interactive Weather Map New forecast layout! Learn more

10-Day Weather Forecast

Advertisements
Track Severe Weather on mobile